sensor_id;sensor_type;location;lat;lon;timestamp;temperature;humidity
5346;DHT22;2695;49.444;11.054;2023-09-12T00:02:14;21.90;99.90
5346;DHT22;2695;49.444;11.054;2023-09-12T00:04:42;21.90;99.90
5346;DHT22;2695;49.444;11.054;2023-09-12T00:07:10;21.80;99.90
5346;DHT22;2695;49.444;11.054;2023-09-12T00:09:38;21.70;99.90
5346;DHT22;2695;49.444;11.054;2023-09-12T00:12:07;21.70;99.90
5346;DHT22;2695;49.444;11.054;2023-09-12T00:14:36;21.70;99.90
5346;DHT22;2695;49.444;11.054;2023-09-12T00:17:04;21.70;99.90
5346;DHT22;2695;49.444;11.054;2023-09-12T00:19:31;21.70;99.90
5346;DHT22;2695;49.444;11.054;2023-09-12T00:21:59;21.60;99.90
5346;DHT22;2695;49.444;11.054;2023-09-12T00:24:26;21.50;99.90
5346;DHT22;2695;49.444;11.054;2023-09-12T00:26:54;21.50;99.90
5346;DHT22;2695;49.444;11.054;2023-09-12T00:29:23;21.40;99.90
5346;DHT22;2695;49.444;11.054;2023-09-12T00:31:52;21.30;99.90
5346;DHT22;2695;49.444;11.054;2023-09-12T00:34:19;21.20;99.90
5346;DHT22;2695;49.444;11.054;2023-09-12T00:36:47;21.20;99.90
5346;DHT22;2695;49.444;11.054;2023-09-12T00:39:15;21.10;99.90
5346;DHT22;2695;49.444;11.054;2023-09-12T00:41:43;21.10;99.90
5346;DHT22;2695;49.444;11.054;2023-09-12T00:44:11;21.10;99.90
5346;DHT22;2695;49.444;11.054;2023-09-12T00:46:40;21.10;99.90
5346;DHT22;2695;49.444;11.054;2023-09-12T00:49:10;21.00;99.90
5346;DHT22;2695;49.444;11.054;2023-09-12T00:51:39;21.00;99.90
5346;DHT22;2695;49.444;11.054;2023-09-12T00:54:07;21.00;99.90
5346;DHT22;2695;49.444;11.054;2023-09-12T00:56:35;21.00;99.90
5346;DHT22;2695;49.444;11.054;2023-09-12T00:59:04;21.00;99.90
5346;DHT22;2695;49.444;11.054;2023-09-12T01:01:33;21.00;99.90
5346;DHT22;2695;49.444;11.054;2023-09-12T01:04:03;21.00;99.90
5346;DHT22;2695;49.444;11.054;2023-09-12T01:06:34;21.00;99.90
5346;DHT22;2695;49.444;11.054;2023-09-12T01:09:02;20.90;99.90
5346;DHT22;2695;49.444;11.054;2023-09-12T01:11:31;20.90;99.90
5346;DHT22;2695;49.444;11.054;2023-09-12T01:13:59;20.90;99.90
5346;DHT22;2695;49.444;11.054;2023-09-12T01:16:27;20.80;99.90
5346;DHT22;2695;49.444;11.054;2023-09-12T01:18:55;20.80;99.90
5346;DHT22;2695;49.444;11.054;2023-09-12T01:21:53;20.80;99.90
5346;DHT22;2695;49.444;11.054;2023-09-12T01:24:52;20.80;99.90
5346;DHT22;2695;49.444;11.054;2023-09-12T01:27:27;20.80;99.90
5346;DHT22;2695;49.444;11.054;2023-09-12T01:29:57;20.80;99.90
5346;DHT22;2695;49.444;11.054;2023-09-12T01:32:26;20.80;99.90
5346;DHT22;2695;49.444;11.054;2023-09-12T01:34:54;20.80;99.90
5346;DHT22;2695;49.444;11.054;2023-09-12T01:37:22;20.80;99.90
5346;DHT22;2695;49.444;11.054;2023-09-12T01:39:50;20.70;99.90
5346;DHT22;2695;49.444;11.054;2023-09-12T01:42:20;20.70;99.90
5346;DHT22;2695;49.444;11.054;2023-09-12T01:44:55;20.70;99.90
5346;DHT22;2695;49.444;11.054;2023-09-12T01:47:25;20.60;99.90
5346;DHT22;2695;49.444;11.054;2023-09-12T01:49:56;20.60;99.90
5346;DHT22;2695;49.444;11.054;2023-09-12T01:52:26;20.60;99.90
5346;DHT22;2695;49.444;11.054;2023-09-12T01:54:55;20.50;99.90
5346;DHT22;2695;49.444;11.054;2023-09-12T01:57:24;20.50;99.90
5346;DHT22;2695;49.444;11.054;2023-09-12T01:59:54;20.50;99.90
5346;DHT22;2695;49.444;11.054;2023-09-12T02:02:22;20.50;99.90
5346;DHT22;2695;49.444;11.054;2023-09-12T02:04:52;20.40;99.90
5346;DHT22;2695;49.444;11.054;2023-09-12T02:07:23;20.50;99.90
5346;DHT22;2695;49.444;11.054;2023-09-12T02:09:52;20.50;99.90
5346;DHT22;2695;49.444;11.054;2023-09-12T02:12:20;20.40;99.90
5346;DHT22;2695;49.444;11.054;2023-09-12T02:14:48;20.40;99.90
5346;DHT22;2695;49.444;11.054;2023-09-12T02:17:17;20.30;99.90
5346;DHT22;2695;49.444;11.054;2023-09-12T02:19:47;20.40;99.90
5346;DHT22;2695;49.444;11.054;2023-09-12T02:24:50;20.20;99.90
5346;DHT22;2695;49.444;11.054;2023-09-12T02:27:18;20.20;99.90
5346;DHT22;2695;49.444;11.054;2023-09-12T02:29:46;20.20;99.90
5346;DHT22;2695;49.444;11.054;2023-09-12T02:32:14;20.20;99.90
5346;DHT22;2695;49.444;11.054;2023-09-12T02:34:44;20.10;99.90
5346;DHT22;2695;49.444;11.054;2023-09-12T02:37:18;20.20;99.90
5346;DHT22;2695;49.444;11.054;2023-09-12T02:39:46;20.20;99.90
5346;DHT22;2695;49.444;11.054;2023-09-12T02:42:14;20.20;99.90
5346;DHT22;2695;49.444;11.054;2023-09-12T02:44:42;20.20;99.90
5346;DHT22;2695;49.444;11.054;2023-09-12T02:47:10;20.20;99.90
5346;DHT22;2695;49.444;11.054;2023-09-12T02:49:38;20.20;99.90
5346;DHT22;2695;49.444;11.054;2023-09-12T02:52:07;20.20;99.90
5346;DHT22;2695;49.444;11.054;2023-09-12T02:54:36;20.20;99.90
5346;DHT22;2695;49.444;11.054;2023-09-12T02:57:04;20.20;99.90
5346;DHT22;2695;49.444;11.054;2023-09-12T02:59:32;20.10;99.90
5346;DHT22;2695;49.444;11.054;2023-09-12T03:02:00;20.00;99.90
5346;DHT22;2695;49.444;11.054;2023-09-12T03:04:29;20.00;99.90
5346;DHT22;2695;49.444;11.054;2023-09-12T03:06:57;20.00;99.90
5346;DHT22;2695;49.444;11.054;2023-09-12T03:09:27;20.00;99.90
5346;DHT22;2695;49.444;11.054;2023-09-12T03:12:01;19.90;99.90
5346;DHT22;2695;49.444;11.054;2023-09-12T03:14:31;19.90;99.90
5346;DHT22;2695;49.444;11.054;2023-09-12T03:16:59;19.90;99.90
5346;DHT22;2695;49.444;11.054;2023-09-12T03:19:52;19.80;99.90
5346;DHT22;2695;49.444;11.054;2023-09-12T03:22:20;19.80;99.90
5346;DHT22;2695;49.444;11.054;2023-09-12T03:24:50;19.80;99.90
5346;DHT22;2695;49.444;11.054;2023-09-12T03:27:18;19.70;99.90
5346;DHT22;2695;49.444;11.054;2023-09-12T03:29:46;19.70;99.90
5346;DHT22;2695;49.444;11.054;2023-09-12T03:32:15;19.70;99.90
5346;DHT22;2695;49.444;11.054;2023-09-12T03:34:43;19.60;99.90
5346;DHT22;2695;49.444;11.054;2023-09-12T03:37:11;19.70;99.90
5346;DHT22;2695;49.444;11.054;2023-09-12T03:39:39;19.60;99.90
5346;DHT22;2695;49.444;11.054;2023-09-12T03:42:09;19.50;99.90
5346;DHT22;2695;49.444;11.054;2023-09-12T03:44:37;19.50;99.90
5346;DHT22;2695;49.444;11.054;2023-09-12T03:47:05;19.50;99.90
5346;DHT22;2695;49.444;11.054;2023-09-12T03:49:34;19.40;99.90
5346;DHT22;2695;49.444;11.054;2023-09-12T03:52:02;19.40;99.90
5346;DHT22;2695;49.444;11.054;2023-09-12T03:54:32;19.40;99.90
5346;DHT22;2695;49.444;11.054;2023-09-12T03:57:00;19.40;99.90
5346;DHT22;2695;49.444;11.054;2023-09-12T03:59:30;19.40;99.90
5346;DHT22;2695;49.444;11.054;2023-09-12T04:02:01;19.30;99.90
5346;DHT22;2695;49.444;11.054;2023-09-12T04:04:29;19.40;99.90
5346;DHT22;2695;49.444;11.054;2023-09-12T04:10:48;19.20;99.90
5346;DHT22;2695;49.444;11.054;2023-09-12T04:13:17;19.10;99.90
5346;DHT22;2695;49.444;11.054;2023-09-12T04:15:46;19.10;99.90
5346;DHT22;2695;49.444;11.054;2023-09-12T04:18:54;19.10;99.90
5346;DHT22;2695;49.444;11.054;2023-09-12T04:21:22;19.10;99.90
5346;DHT22;2695;49.444;11.054;2023-09-12T04:23:50;19.00;99.90
5346;DHT22;2695;49.444;11.054;2023-09-12T04:26:24;19.00;99.90
5346;DHT22;2695;49.444;11.054;2023-09-12T04:28:52;19.00;99.90
5346;DHT22;2695;49.444;11.054;2023-09-12T04:31:22;19.00;99.90
5346;DHT22;2695;49.444;11.054;2023-09-12T04:33:50;18.90;99.90
5346;DHT22;2695;49.444;11.054;2023-09-12T04:36:19;18.90;99.90
5346;DHT22;2695;49.444;11.054;2023-09-12T04:38:47;18.90;99.90
5346;DHT22;2695;49.444;11.054;2023-09-12T04:41:15;18.90;99.90
5346;DHT22;2695;49.444;11.054;2023-09-12T04:43:44;18.90;99.90
5346;DHT22;2695;49.444;11.054;2023-09-12T04:46:12;18.90;99.90
5346;DHT22;2695;49.444;11.054;2023-09-12T04:48:48;19.00;99.90
5346;DHT22;2695;49.444;11.054;2023-09-12T04:51:16;19.00;99.90
5346;DHT22;2695;49.444;11.054;2023-09-12T04:53:45;19.00;99.90
5346;DHT22;2695;49.444;11.054;2023-09-12T04:56:18;19.00;99.90
5346;DHT22;2695;49.444;11.054;2023-09-12T04:58:46;19.10;99.90
5346;DHT22;2695;49.444;11.054;2023-09-12T05:01:15;19.10;99.90
5346;DHT22;2695;49.444;11.054;2023-09-12T05:03:44;19.20;99.90
5346;DHT22;2695;49.444;11.054;2023-09-12T05:06:13;19.30;99.90
5346;DHT22;2695;49.444;11.054;2023-09-12T05:08:42;19.50;99.90
5346;DHT22;2695;49.444;11.054;2023-09-12T05:11:10;19.80;99.90
5346;DHT22;2695;49.444;11.054;2023-09-12T05:13:38;20.20;99.90
5346;DHT22;2695;49.444;11.054;2023-09-12T05:16:25;20.70;99.90
5346;DHT22;2695;49.444;11.054;2023-09-12T05:19:19;21.00;99.90
5346;DHT22;2695;49.444;11.054;2023-09-12T05:21:49;21.30;99.90
5346;DHT22;2695;49.444;11.054;2023-09-12T05:24:17;21.70;99.90
5346;DHT22;2695;49.444;11.054;2023-09-12T05:30:00;22.70;99.90
5346;DHT22;2695;49.444;11.054;2023-09-12T05:32:29;23.20;99.90
5346;DHT22;2695;49.444;11.054;2023-09-12T05:34:58;23.60;99.90
5346;DHT22;2695;49.444;11.054;2023-09-12T05:37:42;23.80;99.90
5346;DHT22;2695;49.444;11.054;2023-09-12T05:40:11;24.40;99.90
5346;DHT22;2695;49.444;11.054;2023-09-12T05:42:39;24.50;99.90
5346;DHT22;2695;49.444;11.054;2023-09-12T05:45:08;24.60;99.90
5346;DHT22;2695;49.444;11.054;2023-09-12T05:47:37;24.90;99.90
5346;DHT22;2695;49.444;11.054;2023-09-12T05:50:06;25.20;99.90
5346;DHT22;2695;49.444;11.054;2023-09-12T05:52:35;25.60;99.90
5346;DHT22;2695;49.444;11.054;2023-09-12T05:55:05;26.00;99.90
5346;DHT22;2695;49.444;11.054;2023-09-12T05:57:33;26.40;99.90
5346;DHT22;2695;49.444;11.054;2023-09-12T06:00:02;27.10;99.90
5346;DHT22;2695;49.444;11.054;2023-09-12T06:02:32;27.50;99.90
5346;DHT22;2695;49.444;11.054;2023-09-12T06:05:01;27.80;99.00
5346;DHT22;2695;49.444;11.054;2023-09-12T06:07:29;28.10;98.20
5346;DHT22;2695;49.444;11.054;2023-09-12T06:09:59;28.40;97.20
5346;DHT22;2695;49.444;11.054;2023-09-12T06:12:29;28.90;96.00
5346;DHT22;2695;49.444;11.054;2023-09-12T06:15:00;29.20;94.60
5346;DHT22;2695;49.444;11.054;2023-09-12T06:17:28;29.50;93.50
5346;DHT22;2695;49.444;11.054;2023-09-12T06:19:56;29.50;93.20
5346;DHT22;2695;49.444;11.054;2023-09-12T06:22:25;29.80;92.50
5346;DHT22;2695;49.444;11.054;2023-09-12T06:24:53;30.00;91.80
5346;DHT22;2695;49.444;11.054;2023-09-12T06:27:21;30.00;91.30
5346;DHT22;2695;49.444;11.054;2023-09-12T06:29:51;30.00;90.90
5346;DHT22;2695;49.444;11.054;2023-09-12T06:32:19;30.40;90.20
5346;DHT22;2695;49.444;11.054;2023-09-12T06:34:48;30.90;88.50
5346;DHT22;2695;49.444;11.054;2023-09-12T06:37:16;31.80;84.50
5346;DHT22;2695;49.444;11.054;2023-09-12T06:39:48;32.00;81.80
5346;DHT22;2695;49.444;11.054;2023-09-12T06:42:23;32.40;79.90
5346;DHT22;2695;49.444;11.054;2023-09-12T06:44:52;32.70;77.90
5346;DHT22;2695;49.444;11.054;2023-09-12T06:47:20;33.10;75.30
5346;DHT22;2695;49.444;11.054;2023-09-12T06:49:48;33.50;73.60
5346;DHT22;2695;49.444;11.054;2023-09-12T06:52:21;33.90;70.90
5346;DHT22;2695;49.444;11.054;2023-09-12T06:54:50;34.20;69.30
5346;DHT22;2695;49.444;11.054;2023-09-12T06:57:18;34.60;68.10
5346;DHT22;2695;49.444;11.054;2023-09-12T06:59:46;35.30;65.40
5346;DHT22;2695;49.444;11.054;2023-09-12T07:02:17;35.70;62.40
5346;DHT22;2695;49.444;11.054;2023-09-12T07:04:45;35.70;60.90
5346;DHT22;2695;49.444;11.054;2023-09-12T07:07:13;35.40;60.00
5346;DHT22;2695;49.444;11.054;2023-09-12T07:09:41;35.50;60.40
5346;DHT22;2695;49.444;11.054;2023-09-12T07:12:09;35.80;60.20
5346;DHT22;2695;49.444;11.054;2023-09-12T07:14:37;36.00;59.50
5346;DHT22;2695;49.444;11.054;2023-09-12T07:17:06;36.50;58.60
5346;DHT22;2695;49.444;11.054;2023-09-12T07:19:35;37.20;56.80
5346;DHT22;2695;49.444;11.054;2023-09-12T07:22:04;37.70;54.90
5346;DHT22;2695;49.444;11.054;2023-09-12T07:24:32;38.00;53.60
5346;DHT22;2695;49.444;11.054;2023-09-12T07:27:00;38.40;52.70
5346;DHT22;2695;49.444;11.054;2023-09-12T07:29:28;39.10;51.20
5346;DHT22;2695;49.444;11.054;2023-09-12T07:31:56;39.30;50.20
5346;DHT22;2695;49.444;11.054;2023-09-12T07:34:26;39.80;49.10
5346;DHT22;2695;49.444;11.054;2023-09-12T07:36:56;40.00;48.30
5346;DHT22;2695;49.444;11.054;2023-09-12T07:39:24;40.20;47.50
5346;DHT22;2695;49.444;11.054;2023-09-12T07:41:52;40.30;46.90
5346;DHT22;2695;49.444;11.054;2023-09-12T07:44:20;40.40;46.50
5346;DHT22;2695;49.444;11.054;2023-09-12T07:46:48;40.40;46.30
5346;DHT22;2695;49.444;11.054;2023-09-12T07:49:16;40.50;45.20
5346;DHT22;2695;49.444;11.054;2023-09-12T07:51:44;41.00;44.60
5346;DHT22;2695;49.444;11.054;2023-09-12T07:54:13;41.30;44.50
5346;DHT22;2695;49.444;11.054;2023-09-12T07:56:42;41.50;43.90
5346;DHT22;2695;49.444;11.054;2023-09-12T07:59:10;42.00;43.00
5346;DHT22;2695;49.444;11.054;2023-09-12T08:01:39;42.40;41.80
5346;DHT22;2695;49.444;11.054;2023-09-12T08:04:07;42.60;41.10
5346;DHT22;2695;49.444;11.054;2023-09-12T08:06:35;42.60;40.40
5346;DHT22;2695;49.444;11.054;2023-09-12T08:09:34;42.60;40.10
5346;DHT22;2695;49.444;11.054;2023-09-12T08:12:13;42.40;40.30
5346;DHT22;2695;49.444;11.054;2023-09-12T08:14:41;42.40;40.20
5346;DHT22;2695;49.444;11.054;2023-09-12T08:17:09;42.70;39.80
5346;DHT22;2695;49.444;11.054;2023-09-12T08:19:37;42.60;39.40
5346;DHT22;2695;49.444;11.054;2023-09-12T08:22:06;42.30;39.80
5346;DHT22;2695;49.444;11.054;2023-09-12T08:24:35;42.10;39.90
5346;DHT22;2695;49.444;11.054;2023-09-12T08:27:03;42.10;39.40
5346;DHT22;2695;49.444;11.054;2023-09-12T08:29:33;42.30;39.80
5346;DHT22;2695;49.444;11.054;2023-09-12T08:32:02;42.70;39.50
5346;DHT22;2695;49.444;11.054;2023-09-12T08:34:30;43.10;38.50
5346;DHT22;2695;49.444;11.054;2023-09-12T08:36:58;43.60;37.80
5346;DHT22;2695;49.444;11.054;2023-09-12T08:39:27;43.70;37.00
5346;DHT22;2695;49.444;11.054;2023-09-12T08:41:55;42.90;37.70
5346;DHT22;2695;49.444;11.054;2023-09-12T08:44:23;42.90;38.40
5346;DHT22;2695;49.444;11.054;2023-09-12T08:46:53;42.90;38.30
5346;DHT22;2695;49.444;11.054;2023-09-12T08:49:21;43.00;37.80
5346;DHT22;2695;49.444;11.054;2023-09-12T08:51:50;43.30;37.90
5346;DHT22;2695;49.444;11.054;2023-09-12T08:54:18;43.50;37.60
5346;DHT22;2695;49.444;11.054;2023-09-12T08:56:47;43.40;37.60
5346;DHT22;2695;49.444;11.054;2023-09-12T08:59:15;43.70;37.30
5346;DHT22;2695;49.444;11.054;2023-09-12T09:01:44;43.90;36.80
5346;DHT22;2695;49.444;11.054;2023-09-12T09:04:14;44.20;36.70
5346;DHT22;2695;49.444;11.054;2023-09-12T09:06:42;44.20;36.60
5346;DHT22;2695;49.444;11.054;2023-09-12T09:09:11;44.40;36.10
5346;DHT22;2695;49.444;11.054;2023-09-12T09:11:39;44.60;35.40
5346;DHT22;2695;49.444;11.054;2023-09-12T09:14:09;44.60;35.60
5346;DHT22;2695;49.444;11.054;2023-09-12T09:16:37;44.40;35.40
5346;DHT22;2695;49.444;11.054;2023-09-12T09:19:05;44.50;35.40
5346;DHT22;2695;49.444;11.054;2023-09-12T09:21:38;44.80;34.90
5346;DHT22;2695;49.444;11.054;2023-09-12T09:24:09;44.60;34.90
5346;DHT22;2695;49.444;11.054;2023-09-12T09:26:45;44.50;34.90
5346;DHT22;2695;49.444;11.054;2023-09-12T09:29:15;44.20;35.10
5346;DHT22;2695;49.444;11.054;2023-09-12T09:31:44;43.90;36.00
5346;DHT22;2695;49.444;11.054;2023-09-12T09:34:14;44.20;35.80
5346;DHT22;2695;49.444;11.054;2023-09-12T09:36:47;44.20;35.40
5346;DHT22;2695;49.444;11.054;2023-09-12T09:39:17;44.40;35.00
5346;DHT22;2695;49.444;11.054;2023-09-12T09:41:47;44.50;35.20
5346;DHT22;2695;49.444;11.054;2023-09-12T09:44:25;44.40;34.90
5346;DHT22;2695;49.444;11.054;2023-09-12T09:46:55;44.10;35.20
5346;DHT22;2695;49.444;11.054;2023-09-12T09:49:23;44.10;35.80
5346;DHT22;2695;49.444;11.054;2023-09-12T09:51:54;44.20;36.30
5346;DHT22;2695;49.444;11.054;2023-09-12T09:54:24;44.30;35.80
5346;DHT22;2695;49.444;11.054;2023-09-12T09:56:54;44.40;35.50
5346;DHT22;2695;49.444;11.054;2023-09-12T09:59:23;44.60;35.10
5346;DHT22;2695;49.444;11.054;2023-09-12T10:01:55;44.50;35.20
5346;DHT22;2695;49.444;11.054;2023-09-12T10:04:24;44.70;35.10
5346;DHT22;2695;49.444;11.054;2023-09-12T10:06:58;44.80;34.80
5346;DHT22;2695;49.444;11.054;2023-09-12T10:09:30;44.70;34.90
5346;DHT22;2695;49.444;11.054;2023-09-12T10:11:59;44.60;35.10
5346;DHT22;2695;49.444;11.054;2023-09-12T10:14:31;44.40;35.70
5346;DHT22;2695;49.444;11.054;2023-09-12T10:17:01;44.20;35.50
5346;DHT22;2695;49.444;11.054;2023-09-12T10:19:38;43.90;35.90
5346;DHT22;2695;49.444;11.054;2023-09-12T10:22:12;43.80;36.30
5346;DHT22;2695;49.444;11.054;2023-09-12T10:24:44;43.90;36.30
5346;DHT22;2695;49.444;11.054;2023-09-12T10:27:13;43.60;37.30
5346;DHT22;2695;49.444;11.054;2023-09-12T10:29:42;43.40;37.00
5346;DHT22;2695;49.444;11.054;2023-09-12T10:32:14;42.90;37.50
5346;DHT22;2695;49.444;11.054;2023-09-12T10:34:44;42.70;37.90
5346;DHT22;2695;49.444;11.054;2023-09-12T10:37:16;42.60;37.80
5346;DHT22;2695;49.444;11.054;2023-09-12T10:39:45;42.30;38.20
5346;DHT22;2695;49.444;11.054;2023-09-12T10:42:15;42.20;38.50
5346;DHT22;2695;49.444;11.054;2023-09-12T10:44:45;42.30;38.80
5346;DHT22;2695;49.444;11.054;2023-09-12T10:47:14;42.60;38.30
5346;DHT22;2695;49.444;11.054;2023-09-12T10:49:43;42.50;38.60
5346;DHT22;2695;49.444;11.054;2023-09-12T10:52:25;42.50;38.60
5346;DHT22;2695;49.444;11.054;2023-09-12T10:54:53;42.50;38.60
5346;DHT22;2695;49.444;11.054;2023-09-12T10:57:22;42.20;38.50
5346;DHT22;2695;49.444;11.054;2023-09-12T11:00:11;42.10;39.20
5346;DHT22;2695;49.444;11.054;2023-09-12T11:02:40;42.10;38.70
5346;DHT22;2695;49.444;11.054;2023-09-12T11:08:13;41.80;39.50
5346;DHT22;2695;49.444;11.054;2023-09-12T11:10:41;41.70;39.60
5346;DHT22;2695;49.444;11.054;2023-09-12T11:13:17;41.70;39.60
5346;DHT22;2695;49.444;11.054;2023-09-12T11:16:09;41.60;39.80
5346;DHT22;2695;49.444;11.054;2023-09-12T11:19:12;41.60;40.10
5346;DHT22;2695;49.444;11.054;2023-09-12T11:21:40;41.60;40.10
5346;DHT22;2695;49.444;11.054;2023-09-12T11:24:09;41.40;40.40
5346;DHT22;2695;49.444;11.054;2023-09-12T11:26:53;41.30;40.40
5346;DHT22;2695;49.444;11.054;2023-09-12T11:29:21;41.20;40.40
5346;DHT22;2695;49.444;11.054;2023-09-12T11:32:26;40.70;40.40
5346;DHT22;2695;49.444;11.054;2023-09-12T11:34:55;40.10;41.20
5346;DHT22;2695;49.444;11.054;2023-09-12T11:37:24;39.50;42.50
5346;DHT22;2695;49.444;11.054;2023-09-12T11:39:54;39.20;42.80
5346;DHT22;2695;49.444;11.054;2023-09-12T11:42:24;39.00;42.80
5346;DHT22;2695;49.444;11.054;2023-09-12T11:44:53;38.90;43.10
5346;DHT22;2695;49.444;11.054;2023-09-12T11:47:21;38.70;43.70
5346;DHT22;2695;49.444;11.054;2023-09-12T11:49:49;38.30;44.70
5346;DHT22;2695;49.444;11.054;2023-09-12T11:52:17;38.10;45.00
5346;DHT22;2695;49.444;11.054;2023-09-12T11:54:47;38.00;45.40
5346;DHT22;2695;49.444;11.054;2023-09-12T11:57:17;37.80;45.50
5346;DHT22;2695;49.444;11.054;2023-09-12T11:59:46;37.60;46.00
5346;DHT22;2695;49.444;11.054;2023-09-12T12:02:15;37.30;46.50
5346;DHT22;2695;49.444;11.054;2023-09-12T12:04:44;37.20;47.10
5346;DHT22;2695;49.444;11.054;2023-09-12T12:07:13;37.10;47.50
5346;DHT22;2695;49.444;11.054;2023-09-12T12:09:41;37.00;48.20
5346;DHT22;2695;49.444;11.054;2023-09-12T12:12:11;36.90;48.70
5346;DHT22;2695;49.444;11.054;2023-09-12T12:14:42;36.80;47.60
5346;DHT22;2695;49.444;11.054;2023-09-12T12:17:12;36.80;47.80
5346;DHT22;2695;49.444;11.054;2023-09-12T12:19:45;36.60;47.60
5346;DHT22;2695;49.444;11.054;2023-09-12T12:22:13;36.40;47.70
5346;DHT22;2695;49.444;11.054;2023-09-12T12:24:44;36.30;47.50
5346;DHT22;2695;49.444;11.054;2023-09-12T12:27:14;36.20;48.20
5346;DHT22;2695;49.444;11.054;2023-09-12T12:29:44;36.10;48.30
5346;DHT22;2695;49.444;11.054;2023-09-12T12:32:15;36.20;48.70
5346;DHT22;2695;49.444;11.054;2023-09-12T12:34:47;36.20;47.80
5346;DHT22;2695;49.444;11.054;2023-09-12T12:37:36;36.20;47.80
5346;DHT22;2695;49.444;11.054;2023-09-12T12:40:06;36.10;48.20
5346;DHT22;2695;49.444;11.054;2023-09-12T12:42:40;36.00;48.20
5346;DHT22;2695;49.444;11.054;2023-09-12T12:45:22;35.90;48.20
5346;DHT22;2695;49.444;11.054;2023-09-12T12:47:51;35.90;48.90
5346;DHT22;2695;49.444;11.054;2023-09-12T12:50:20;35.90;48.70
5346;DHT22;2695;49.444;11.054;2023-09-12T12:52:49;35.70;49.40
5346;DHT22;2695;49.444;11.054;2023-09-12T12:55:17;35.40;49.30
5346;DHT22;2695;49.444;11.054;2023-09-12T12:57:48;35.30;49.00
5346;DHT22;2695;49.444;11.054;2023-09-12T13:00:17;35.00;48.70
5346;DHT22;2695;49.444;11.054;2023-09-12T13:02:47;35.00;49.50
5346;DHT22;2695;49.444;11.054;2023-09-12T13:05:23;34.80;50.30
5346;DHT22;2695;49.444;11.054;2023-09-12T13:07:52;34.80;50.50
5346;DHT22;2695;49.444;11.054;2023-09-12T13:10:20;34.80;50.10
5346;DHT22;2695;49.444;11.054;2023-09-12T13:12:49;34.90;49.00
5346;DHT22;2695;49.444;11.054;2023-09-12T13:15:18;34.80;49.90
5346;DHT22;2695;49.444;11.054;2023-09-12T13:17:48;34.70;49.70
5346;DHT22;2695;49.444;11.054;2023-09-12T13:20:16;34.50;50.20
5346;DHT22;2695;49.444;11.054;2023-09-12T13:22:44;34.40;50.70
5346;DHT22;2695;49.444;11.054;2023-09-12T13:25:12;34.20;50.20
5346;DHT22;2695;49.444;11.054;2023-09-12T13:27:41;34.20;51.30
5346;DHT22;2695;49.444;11.054;2023-09-12T13:30:10;34.00;51.20
5346;DHT22;2695;49.444;11.054;2023-09-12T13:32:38;34.00;51.50
5346;DHT22;2695;49.444;11.054;2023-09-12T13:35:08;34.10;52.10
5346;DHT22;2695;49.444;11.054;2023-09-12T13:37:36;34.20;51.50
5346;DHT22;2695;49.444;11.054;2023-09-12T13:40:05;34.20;51.60
5346;DHT22;2695;49.444;11.054;2023-09-12T13:42:36;34.20;52.40
5346;DHT22;2695;49.444;11.054;2023-09-12T13:45:05;34.20;51.90
5346;DHT22;2695;49.444;11.054;2023-09-12T13:47:33;34.10;51.40
5346;DHT22;2695;49.444;11.054;2023-09-12T13:52:48;33.80;51.10
5346;DHT22;2695;49.444;11.054;2023-09-12T13:55:16;33.60;51.70
5346;DHT22;2695;49.444;11.054;2023-09-12T13:58:05;33.40;52.20
5346;DHT22;2695;49.444;11.054;2023-09-12T14:00:34;33.10;52.20
5346;DHT22;2695;49.444;11.054;2023-09-12T14:03:04;33.00;53.00
5346;DHT22;2695;49.444;11.054;2023-09-12T14:05:32;32.90;52.90
5346;DHT22;2695;49.444;11.054;2023-09-12T14:08:02;32.80;53.00
5346;DHT22;2695;49.444;11.054;2023-09-12T14:10:30;32.70;52.90
5346;DHT22;2695;49.444;11.054;2023-09-12T14:13:04;32.80;52.30
5346;DHT22;2695;49.444;11.054;2023-09-12T14:15:47;32.90;52.20
5346;DHT22;2695;49.444;11.054;2023-09-12T14:18:17;33.00;52.70
5346;DHT22;2695;49.444;11.054;2023-09-12T14:20:47;33.10;53.10
5346;DHT22;2695;49.444;11.054;2023-09-12T14:23:18;32.90;53.30
5346;DHT22;2695;49.444;11.054;2023-09-12T14:25:48;32.90;53.40
5346;DHT22;2695;49.444;11.054;2023-09-12T14:28:16;32.80;53.60
5346;DHT22;2695;49.444;11.054;2023-09-12T14:30:45;32.70;53.80
5346;DHT22;2695;49.444;11.054;2023-09-12T14:37:05;32.80;53.60
5346;DHT22;2695;49.444;11.054;2023-09-12T14:39:34;32.80;53.90
5346;DHT22;2695;49.444;11.054;2023-09-12T14:42:02;32.90;54.40
5346;DHT22;2695;49.444;11.054;2023-09-12T14:44:35;32.90;54.00
5346;DHT22;2695;49.444;11.054;2023-09-12T14:47:04;33.10;53.60
5346;DHT22;2695;49.444;11.054;2023-09-12T14:49:32;33.00;52.60
5346;DHT22;2695;49.444;11.054;2023-09-12T14:52:09;33.00;52.50
5346;DHT22;2695;49.444;11.054;2023-09-12T14:54:50;33.10;52.50
5346;DHT22;2695;49.444;11.054;2023-09-12T14:57:18;33.10;53.20
5346;DHT22;2695;49.444;11.054;2023-09-12T14:59:50;33.20;53.20
5346;DHT22;2695;49.444;11.054;2023-09-12T15:02:18;33.10;52.80
5346;DHT22;2695;49.444;11.054;2023-09-12T15:04:48;33.10;52.20
5346;DHT22;2695;49.444;11.054;2023-09-12T15:07:17;33.10;52.30
5346;DHT22;2695;49.444;11.054;2023-09-12T15:09:45;33.10;52.90
5346;DHT22;2695;49.444;11.054;2023-09-12T15:12:14;33.10;52.60
5346;DHT22;2695;49.444;11.054;2023-09-12T15:14:42;33.00;51.30
5346;DHT22;2695;49.444;11.054;2023-09-12T15:17:10;33.00;51.60
5346;DHT22;2695;49.444;11.054;2023-09-12T15:19:39;33.00;52.90
5346;DHT22;2695;49.444;11.054;2023-09-12T15:22:44;32.90;52.50
5346;DHT22;2695;49.444;11.054;2023-09-12T15:25:12;32.70;52.80
5346;DHT22;2695;49.444;11.054;2023-09-12T15:28:00;32.50;52.30
5346;DHT22;2695;49.444;11.054;2023-09-12T15:30:28;32.40;52.70
5346;DHT22;2695;49.444;11.054;2023-09-12T15:32:56;32.50;53.40
5346;DHT22;2695;49.444;11.054;2023-09-12T15:35:24;32.40;53.40
5346;DHT22;2695;49.444;11.054;2023-09-12T15:37:52;32.50;53.70
5346;DHT22;2695;49.444;11.054;2023-09-12T15:40:20;32.60;53.60
5346;DHT22;2695;49.444;11.054;2023-09-12T15:42:48;32.60;53.30
5346;DHT22;2695;49.444;11.054;2023-09-12T15:45:21;32.60;54.20
5346;DHT22;2695;49.444;11.054;2023-09-12T15:47:49;32.60;53.60
5346;DHT22;2695;49.444;11.054;2023-09-12T15:50:18;32.60;54.10
5346;DHT22;2695;49.444;11.054;2023-09-12T15:52:45;32.60;54.40
5346;DHT22;2695;49.444;11.054;2023-09-12T15:55:13;32.60;54.20
5346;DHT22;2695;49.444;11.054;2023-09-12T15:57:41;32.60;54.90
5346;DHT22;2695;49.444;11.054;2023-09-12T16:00:10;32.60;54.40
5346;DHT22;2695;49.444;11.054;2023-09-12T16:02:41;32.60;54.10
5346;DHT22;2695;49.444;11.054;2023-09-12T16:05:10;32.50;54.00
5346;DHT22;2695;49.444;11.054;2023-09-12T16:07:38;32.40;54.10
5346;DHT22;2695;49.444;11.054;2023-09-12T16:10:07;32.30;55.00
5346;DHT22;2695;49.444;11.054;2023-09-12T16:12:37;32.20;54.60
5346;DHT22;2695;49.444;11.054;2023-09-12T16:15:06;32.10;55.00
5346;DHT22;2695;49.444;11.054;2023-09-12T16:17:34;32.00;54.50
5346;DHT22;2695;49.444;11.054;2023-09-12T16:20:06;32.00;54.90
5346;DHT22;2695;49.444;11.054;2023-09-12T16:22:36;31.90;55.30
5346;DHT22;2695;49.444;11.054;2023-09-12T16:25:04;31.80;55.10